Pagrindinis puslapis
METAR-TAF:

METAR-TAF

Oro uostai :

Karačis, Pakistanas

platuma: 24-54N, ilguma: 067-08E, Aukštis: 21 m

Dabartinis oras

Ataskaita buvo paskelbta 21 minutes, ne 20:25 UTC
Ramus vėjas
Temperatūra 16°C
Drėgmė 48%
Slėgis 1017 hPa
Matomumas: 5000 m
migla

METAR: OPKC 092025Z 00000KT 5000 HZ NSC 16/05 Q1017 NOSIG

Laikas: 01:46 (20:46 UTC)

Prognozė

Ataskaita buvo paskelbta 2 valandos ir 16 minutes, ne 18:30 UTC
Prognozė galioja nuo 09 metu 21 UTC su 10 metu 06 UTC
Vėjas 8 kt iš Šiaurės/Šiaurės Rytų
Matomumas: 5000 m
migla
Laikinai
nuo 10 metu 00 UTC su 10 metu 04 UTC
Vėjas 3 kt nuo kintamojo kryptimis
Matomumas: 5000 m
dūmai

TAF: OPKC 091830Z 0921/1006 03008KT 5000 HZ NSC TEMPO 1000/1004 VRB03KT 5000 FU NSC

Orai ataskaitas ir orų prognozės (METAR, TAF).

turimą stotys yra geltonos ir raudonos taškus žemėlapyje.

Perkelti pele per norėdami pamatyti stoties vardą.

Tada spustelėkite, norėdami matyti oro stebėjimo ir prognozės.

Norėdami pakeisti žemėlapį: spustelėkite ant žalios mygtukų su juodo kryžiaus žemyn,; žalią mygtuką su brūkšneliu, jei norite nutolinti; arba žalių rodyklių gretimoms žemėlapius.


METAR-TAF: